Time;durP1;ratioP1;P1;durP2;ratioP2;P2;SDS_P1;SDS_P2;PMS_P1;PMS_P2;Temp;Humidity;BMP_temperature;BMP_pressure;BME280_temperature;BME280_humidity;BME280_pressure;Samples;Min_cycle;Max_cycle;Signal;HPM_P1;HPM_P2
2022/05/21 00:02:02;;;;;;;12.90;10.35;;;13.20;99.90;;;;;;5072963;28;20256;-82
2022/05/21 00:04:29;;;;;;;10.43;9.02;;;13.30;99.90;;;;;;5065736;28;20230;-81
2022/05/21 00:06:58;;;;;;;17.65;11.25;;;13.10;99.90;;;;;;5070477;28;20309;-80
2022/05/21 00:09:25;;;;;;;12.40;11.27;;;13.10;99.90;;;;;;5058005;28;20221;-81
2022/05/21 00:11:52;;;;;;;10.23;9.23;;;13.10;99.90;;;;;;5065579;28;20199;-81
2022/05/21 00:14:20;;;;;;;10.15;9.15;;;13.10;99.90;;;;;;5072544;28;20210;-78
2022/05/21 00:16:47;;;;;;;10.65;9.63;;;13.10;99.90;;;;;;5063934;28;20206;-80
2022/05/21 00:19:14;;;;;;;9.60;8.60;;;13.10;99.90;;;;;;5062717;28;20201;-81
2022/05/21 00:21:41;;;;;;;9.13;8.13;;;13.10;99.90;;;;;;5064122;28;20249;-79
2022/05/21 00:24:09;;;;;;;11.35;9.25;;;13.00;99.90;;;;;;5082435;28;20224;-80
2022/05/21 00:26:36;;;;;;;8.60;7.72;;;12.90;99.90;;;;;;5071359;28;20245;-80
2022/05/21 00:29:04;;;;;;;9.00;6.95;;;12.90;99.90;;;;;;5063183;28;20210;-81
2022/05/21 00:31:30;;;;;;;8.85;8.05;;;12.90;99.90;;;;;;5066486;28;20290;-80
2022/05/21 00:33:57;;;;;;;8.23;7.43;;;12.80;99.90;;;;;;5071395;28;20223;-79
2022/05/21 00:36:24;;;;;;;10.40;7.60;;;12.80;99.90;;;;;;5070605;28;20305;-82
2022/05/21 00:38:51;;;;;;;7.60;6.90;;;12.80;99.90;;;;;;5069170;28;20257;-80
2022/05/21 00:41:20;;;;;;;7.60;6.80;;;12.80;99.90;;;;;;5063985;28;20464;-81
2022/05/21 00:43:50;;;;;;;8.52;7.75;;;12.80;99.90;;;;;;5066890;28;20206;-81
2022/05/21 00:46:20;;;;;;;8.32;7.07;;;12.70;99.90;;;;;;5071259;28;20215;-82
2022/05/21 00:48:53;;;;;;;9.40;7.57;;;12.70;99.90;;;;;;5064388;28;20255;-82
2022/05/21 00:51:24;;;;;;;8.05;7.10;;;12.70;99.90;;;;;;5063685;28;20191;-80
2022/05/21 00:53:54;;;;;;;8.10;7.30;;;12.60;99.90;;;;;;5063317;28;20197;-81
2022/05/21 00:56:23;;;;;;;7.30;6.65;;;12.60;99.90;;;;;;5063723;28;20205;-80
2022/05/21 01:01:40;;;;;;;8.07;6.55;;;12.50;99.90;;;;;;5062503;28;20279;-81
2022/05/21 01:04:08;;;;;;;8.93;7.25;;;12.50;99.90;;;;;;5063098;28;20200;-81
2022/05/21 01:06:37;;;;;;;7.53;6.38;;;12.50;99.90;;;;;;5070401;28;20209;-80
2022/05/21 01:09:04;;;;;;;7.70;7.00;;;12.40;99.90;;;;;;5069822;28;20302;-79
2022/05/21 01:11:32;;;;;;;7.10;6.40;;;12.30;99.90;;;;;;5063322;28;20574;-81
2022/05/21 01:14:00;;;;;;;7.95;7.25;;;12.30;99.90;;;;;;5063071;28;20284;-80
2022/05/21 01:16:29;;;;;;;6.82;6.13;;;12.30;99.90;;;;;;5061713;28;20288;-79
2022/05/21 01:18:56;;;;;;;6.65;5.93;;;12.30;99.90;;;;;;5061836;28;20227;-80
2022/05/21 01:21:24;;;;;;;9.18;6.85;;;12.30;99.90;;;;;;5063178;28;20271;-79
2022/05/21 01:23:52;;;;;;;8.32;6.97;;;12.20;99.90;;;;;;5062552;28;20234;-82
2022/05/21 01:26:21;;;;;;;12.68;7.63;;;12.20;99.90;;;;;;5064008;28;20212;-79
2022/05/21 01:28:49;;;;;;;9.05;7.53;;;12.20;99.90;;;;;;5072011;28;20226;-81
2022/05/21 01:31:16;;;;;;;11.75;7.15;;;12.20;99.90;;;;;;5062943;28;20607;-80
2022/05/21 01:33:45;;;;;;;11.77;8.55;;;12.20;99.90;;;;;;5063103;28;20196;-79
2022/05/21 01:36:13;;;;;;;8.32;7.10;;;12.10;99.90;;;;;;5071859;28;20208;-80
2022/05/21 01:38:40;;;;;;;9.27;7.38;;;12.00;99.90;;;;;;5066565;28;20525;-78
2022/05/21 01:41:09;;;;;;;9.30;8.32;;;12.00;99.90;;;;;;5062477;28;20315;-79
2022/05/21 01:46:22;;;;;;;8.60;7.70;;;12.10;99.90;;;;;;5064432;28;20275;-81
2022/05/21 01:48:49;;;;;;;9.15;7.63;;;12.20;99.90;;;;;;5063113;28;20233;-81
2022/05/21 01:51:17;;;;;;;8.73;7.07;;;12.10;99.90;;;;;;5061981;28;20205;-80
2022/05/21 01:53:44;;;;;;;10.32;7.05;;;12.10;99.90;;;;;;5068168;28;20216;-81
2022/05/21 01:56:14;;;;;;;10.48;7.57;;;12.10;99.90;;;;;;5064526;28;20233;-80
2022/05/21 01:58:42;;;;;;;9.23;7.90;;;12.10;99.90;;;;;;5071542;28;20277;-82
2022/05/21 02:01:10;;;;;;;9.30;8.40;;;12.10;99.90;;;;;;5076870;28;20277;-81
2022/05/21 02:03:37;;;;;;;8.57;7.75;;;12.10;99.90;;;;;;5078295;28;20182;-81
2022/05/21 02:06:04;;;;;;;10.13;8.98;;;12.10;99.90;;;;;;5078185;28;20240;-80
2022/05/21 02:08:31;;;;;;;13.65;8.80;;;12.10;99.90;;;;;;5072372;28;20221;-78
2022/05/21 02:10:58;;;;;;;11.77;8.85;;;12.20;99.90;;;;;;5060142;28;20204;-80
2022/05/21 02:13:28;;;;;;;10.27;9.05;;;12.20;99.90;;;;;;5064730;28;20295;-81
2022/05/21 02:15:56;;;;;;;9.98;9.05;;;12.30;99.90;;;;;;5082551;28;20685;-79
2022/05/21 02:18:23;;;;;;;11.23;9.80;;;12.20;99.90;;;;;;5064840;28;20591;-80
2022/05/21 02:20:50;;;;;;;11.43;9.50;;;12.20;99.90;;;;;;5053200;28;20296;-82
2022/05/21 02:23:18;;;;;;;10.55;9.63;;;12.20;99.90;;;;;;5064318;28;20581;-82
2022/05/21 02:25:45;;;;;;;13.23;9.40;;;12.20;99.90;;;;;;5069165;28;20288;-82
2022/05/21 02:28:13;;;;;;;12.05;10.85;;;12.10;99.90;;;;;;5063901;28;20284;-82
2022/05/21 02:30:42;;;;;;;13.40;10.88;;;12.10;99.90;;;;;;5070774;28;20202;-79
2022/05/21 02:33:09;;;;;;;12.88;10.05;;;12.10;99.90;;;;;;5077200;28;20201;-80
2022/05/21 02:35:36;;;;;;;12.05;10.88;;;12.10;99.90;;;;;;5063082;28;20232;-77
2022/05/21 02:40:47;;;;;;;13.45;9.85;;;12.20;99.90;;;;;;5061540;28;20219;-78
2022/05/21 02:43:14;;;;;;;13.80;10.60;;;12.20;99.90;;;;;;5061453;28;20219;-80
2022/05/21 02:45:42;;;;;;;13.55;10.80;;;12.10;99.90;;;;;;5061535;28;20655;-79
2022/05/21 02:48:09;;;;;;;15.52;11.35;;;12.10;99.90;;;;;;5062377;28;20243;-80
2022/05/21 02:50:38;;;;;;;14.10;11.90;;;12.00;99.90;;;;;;5065637;28;20205;-79
2022/05/21 02:53:07;;;;;;;14.90;11.85;;;12.00;99.90;;;;;;5068385;28;20202;-80
2022/05/21 02:55:34;;;;;;;13.07;11.68;;;12.00;99.90;;;;;;5068781;28;20279;-79
2022/05/21 02:58:01;;;;;;;28.95;12.90;;;12.00;99.90;;;;;;5063164;28;20236;-80
2022/05/21 03:00:31;;;;;;;13.32;11.73;;;12.00;99.90;;;;;;5061776;28;20750;-81
2022/05/21 03:02:59;;;;;;;13.82;12.43;;;12.00;99.90;;;;;;5062814;28;20649;-81
2022/05/21 03:05:29;;;;;;;15.50;13.43;;;12.00;99.90;;;;;;5062578;28;20293;-80
2022/05/21 03:07:56;;;;;;;17.30;13.30;;;12.00;99.90;;;;;;5062162;28;20225;-81
2022/05/21 03:10:26;;;;;;;14.88;12.77;;;12.00;99.90;;;;;;5055017;28;20354;-81
2022/05/21 03:12:56;;;;;;;15.68;11.75;;;12.00;99.90;;;;;;5061815;28;20192;-81
2022/05/21 03:15:27;;;;;;;13.00;10.85;;;12.20;99.90;;;;;;5062178;28;20190;-80
2022/05/21 03:17:54;;;;;;;14.70;12.05;;;12.40;99.90;;;;;;5068698;28;20660;-81
2022/05/21 03:20:22;;;;;;;14.13;11.40;;;12.50;99.90;;;;;;5060416;28;20645;-81
2022/05/21 03:22:49;;;;;;;13.27;11.50;;;12.70;99.90;;;;;;5069632;28;20228;-80
2022/05/21 03:25:17;;;;;;;14.85;12.70;;;12.80;99.90;;;;;;5062506;28;20205;-80
2022/05/21 03:27:45;;;;;;;16.92;15.00;;;12.80;99.90;;;;;;5060296;28;20308;-81
2022/05/21 03:30:14;;;;;;;15.48;13.57;;;12.90;99.90;;;;;;5060248;28;20296;-81
2022/05/21 03:32:42;;;;;;;17.05;15.35;;;12.90;99.90;;;;;;5060649;28;20230;-80
2022/05/21 03:35:10;;;;;;;17.30;14.95;;;12.80;99.90;;;;;;5060171;28;20242;-82
2022/05/21 03:37:39;;;;;;;22.00;17.00;;;12.80;99.90;;;;;;5068727;28;20304;-81
2022/05/21 03:40:08;;;;;;;24.05;18.55;;;12.80;99.90;;;;;;5061891;28;20765;-81
2022/05/21 03:42:37;;;;;;;17.83;15.75;;;12.70;99.90;;;;;;5064650;28;20224;-80
2022/05/21 03:45:06;;;;;;;21.70;18.55;;;12.80;99.90;;;;;;5064830;28;20213;-80
2022/05/21 03:47:33;;;;;;;25.95;20.10;;;12.70;99.90;;;;;;5064801;28;20237;-79
2022/05/21 03:50:00;;;;;;;23.52;18.90;;;12.80;99.90;;;;;;5064956;28;20302;-80
2022/05/21 03:52:27;;;;;;;28.35;19.48;;;12.90;99.90;;;;;;5073112;28;20202;-80
2022/05/21 03:54:55;;;;;;;24.95;21.25;;;12.90;99.90;;;;;;5071772;28;20219;-81
2022/05/21 03:57:22;;;;;;;28.98;21.33;;;12.80;99.90;;;;;;5062504;28;20288;-79
2022/05/21 03:59:49;;;;;;;23.60;21.05;;;12.90;99.90;;;;;;5068623;28;20231;-79
2022/05/21 04:02:16;;;;;;;24.70;21.00;;;12.90;99.90;;;;;;5063297;28;20229;-79
2022/05/21 04:04:43;;;;;;;28.45;21.75;;;13.00;99.90;;;;;;5065349;28;20272;-78
2022/05/21 04:07:10;;;;;;;25.73;21.67;;;13.10;99.90;;;;;;5067828;28;20231;-78
2022/05/21 04:09:37;;;;;;;26.38;20.80;;;13.00;99.90;;;;;;5077130;28;20290;-79
2022/05/21 04:12:07;;;;;;;25.55;21.83;;;13.10;99.90;;;;;;5052912;28;20571;-79
2022/05/21 04:14:33;;;;;;;32.20;26.02;;;13.10;99.90;;;;;;5070560;28;20286;-78
2022/05/21 04:17:03;;;;;;;33.47;25.52;;;13.10;99.90;;;;;;5067848;28;20272;-81
2022/05/21 04:19:31;;;;;;;35.42;26.67;;;13.10;99.90;;;;;;5074996;28;20265;-79
2022/05/21 04:21:58;;;;;;;38.13;28.17;;;13.20;99.90;;;;;;5073331;28;20312;-77
2022/05/21 04:24:25;;;;;;;36.40;29.15;;;13.10;99.90;;;;;;5067720;28;20240;-78
2022/05/21 04:26:52;;;;;;;35.95;30.58;;;13.10;99.90;;;;;;5074788;28;20226;-79
2022/05/21 04:29:21;;;;;;;38.15;29.85;;;13.10;99.90;;;;;;5072364;28;20693;-79
2022/05/21 04:31:48;;;;;;;34.63;28.63;;;13.10;99.90;;;;;;5063599;28;20270;-81
2022/05/21 04:34:15;;;;;;;40.58;31.05;;;13.00;99.90;;;;;;5064093;28;20232;-81
2022/05/21 04:36:42;;;;;;;42.30;31.55;;;13.00;99.90;;;;;;5063998;28;20721;-81
2022/05/21 04:39:09;;;;;;;40.03;31.48;;;13.00;99.90;;;;;;5063109;28;20210;-81
2022/05/21 04:41:36;;;;;;;41.63;31.58;;;13.00;99.90;;;;;;5063127;28;20230;-79
2022/05/21 04:44:03;;;;;;;37.83;31.80;;;13.00;99.90;;;;;;5066798;28;20279;-80
2022/05/21 04:46:32;;;;;;;39.42;32.17;;;13.10;99.90;;;;;;5077436;28;20256;-80
2022/05/21 04:48:59;;;;;;;44.40;33.33;;;13.10;99.90;;;;;;5092972;28;20492;-80
2022/05/21 04:51:26;;;;;;;46.90;32.47;;;13.10;99.90;;;;;;5083415;28;20191;-81
2022/05/21 04:53:53;;;;;;;40.55;32.25;;;13.20;99.90;;;;;;5080146;28;20212;-81
2022/05/21 04:56:20;;;;;;;38.97;34.70;;;13.30;99.90;;;;;;5083381;28;20186;-80
2022/05/21 04:58:47;;;;;;;39.50;31.30;;;13.20;99.90;;;;;;5091483;28;20230;-80
2022/05/21 05:01:14;;;;;;;36.33;28.42;;;13.20;99.90;;;;;;5083500;28;20206;-80
2022/05/21 05:03:42;;;;;;;39.05;32.13;;;13.30;99.90;;;;;;5076601;28;20282;-80
2022/05/21 05:06:09;;;;;;;37.42;31.02;;;13.40;99.90;;;;;;5061620;28;20206;-79
2022/05/21 05:08:37;;;;;;;32.65;28.77;;;13.50;99.90;;;;;;5066019;28;20226;-81
2022/05/21 05:11:04;;;;;;;37.13;29.90;;;13.40;99.90;;;;;;5062108;28;20226;-80
2022/05/21 05:13:30;;;;;;;38.15;31.90;;;13.60;99.90;;;;;;5066363;28;20268;-81
2022/05/21 05:15:58;;;;;;;33.58;29.20;;;13.40;99.90;;;;;;5069043;28;20275;-79
2022/05/21 05:18:27;;;;;;;32.47;28.10;;;13.60;99.90;;;;;;5068069;28;20224;-80
2022/05/21 05:20:55;;;;;;;40.83;28.25;;;13.50;99.90;;;;;;5073902;28;20203;-80
2022/05/21 05:23:22;;;;;;;38.08;28.20;;;13.50;99.90;;;;;;5083641;28;20219;-80
2022/05/21 05:25:49;;;;;;;33.50;29.80;;;13.50;99.90;;;;;;5078542;28;20260;-80
2022/05/21 05:28:18;;;;;;;34.72;29.55;;;13.50;99.90;;;;;;5063899;28;20234;-80
2022/05/21 05:30:46;;;;;;;36.53;32.25;;;13.50;99.90;;;;;;5065348;28;20637;-80
2022/05/21 05:33:13;;;;;;;34.15;28.52;;;13.60;99.90;;;;;;5073144;28;20261;-79
2022/05/21 05:35:40;;;;;;;40.20;29.85;;;13.60;99.90;;;;;;5077493;28;20229;-79
2022/05/21 05:38:11;;;;;;;33.15;27.88;;;13.70;99.90;;;;;;5068321;28;20223;-79
2022/05/21 05:40:41;;;;;;;40.08;29.90;;;13.80;99.90;;;;;;5070734;28;20206;-79
2022/05/21 05:43:08;;;;;;;31.38;27.02;;;13.90;99.90;;;;;;5064995;28;20211;-79
2022/05/21 05:45:35;;;;;;;28.30;25.35;;;14.60;99.90;;;;;;5063592;28;20259;-80
2022/05/21 05:48:02;;;;;;;28.10;25.08;;;15.70;99.90;;;;;;5065277;28;20226;-81
2022/05/21 05:50:29;;;;;;;26.80;24.00;;;15.80;99.90;;;;;;5072862;28;20275;-80
2022/05/21 05:53:00;;;;;;;31.05;25.88;;;15.40;99.90;;;;;;5062321;28;20271;-81
2022/05/21 05:55:29;;;;;;;31.77;26.77;;;15.30;99.90;;;;;;5061892;28;20669;-80
2022/05/21 05:57:56;;;;;;;29.80;22.63;;;15.10;99.90;;;;;;5065470;28;20232;-80
2022/05/21 06:00:22;;;;;;;29.90;26.02;;;15.10;99.90;;;;;;5061353;28;20740;-81
2022/05/21 06:03:01;;;;;;;28.23;23.47;;;15.10;99.90;;;;;;5070000;28;20239;-80
2022/05/21 06:05:30;;;;;;;30.58;24.38;;;15.10;99.90;;;;;;5061773;28;20454;-80
2022/05/21 06:08:00;;;;;;;27.27;22.58;;;15.00;99.90;;;;;;5063149;28;20237;-81
2022/05/21 06:10:30;;;;;;;28.20;21.98;;;15.00;99.90;;;;;;5064829;28;20273;-80
2022/05/21 06:12:58;;;;;;;27.60;22.27;;;15.00;99.90;;;;;;5065272;28;20283;-77
2022/05/21 06:15:25;;;;;;;32.88;23.42;;;14.90;99.90;;;;;;5067314;28;20729;-79
2022/05/21 06:17:52;;;;;;;24.88;20.92;;;14.80;99.90;;;;;;5067108;28;20290;-80
2022/05/21 06:20:22;;;;;;;25.25;22.48;;;14.80;99.90;;;;;;5067460;28;20207;-79
2022/05/21 06:22:49;;;;;;;29.90;21.55;;;14.80;99.90;;;;;;5068474;28;20306;-79
2022/05/21 06:25:18;;;;;;;24.30;19.80;;;14.80;99.90;;;;;;5067530;28;20672;-80
2022/05/21 06:27:47;;;;;;;24.98;20.30;;;14.80;99.90;;;;;;5070645;28;20237;-80
2022/05/21 06:30:15;;;;;;;28.85;20.27;;;14.70;99.90;;;;;;5068452;28;20224;-81
2022/05/21 06:32:42;;;;;;;25.08;18.80;;;14.80;99.90;;;;;;5070949;28;20194;-81
2022/05/21 06:35:11;;;;;;;27.08;19.33;;;15.00;99.90;;;;;;5068194;28;20199;-80
2022/05/21 06:37:38;;;;;;;28.50;19.50;;;15.00;99.90;;;;;;5071599;28;20571;-79
2022/05/21 06:40:08;;;;;;;21.73;18.17;;;15.10;99.90;;;;;;5065587;28;20725;-80
2022/05/21 06:42:35;;;;;;;24.58;15.57;;;15.40;99.90;;;;;;5066364;28;20230;-79
2022/05/21 06:45:03;;;;;;;21.50;15.63;;;15.50;99.90;;;;;;5064358;28;20280;-79
2022/05/21 06:47:30;;;;;;;18.10;16.17;;;15.70;99.90;;;;;;5071853;28;20218;-79
2022/05/21 06:49:58;;;;;;;21.75;14.48;;;15.70;99.90;;;;;;5072392;28;20286;-80
2022/05/21 06:52:26;;;;;;;20.67;15.35;;;15.90;99.90;;;;;;5065240;28;20309;-80
2022/05/21 06:54:53;;;;;;;21.13;14.95;;;16.10;99.90;;;;;;5067595;28;20267;-79
2022/05/21 06:57:21;;;;;;;13.45;10.65;;;16.30;99.90;;;;;;5064428;28;21032;-81
2022/05/21 06:59:48;;;;;;;13.07;10.90;;;16.90;99.90;;;;;;5062282;28;20263;-80
2022/05/21 07:02:16;;;;;;;10.80;9.70;;;17.50;99.90;;;;;;5059900;28;21072;-81
2022/05/21 07:07:43;;;;;;;11.73;7.80;;;17.40;99.90;;;;;;5063151;28;20453;-80
2022/05/21 07:10:17;;;;;;;8.07;5.87;;;18.60;99.90;;;;;;5068316;28;20480;-81
2022/05/21 07:12:44;;;;;;;13.60;6.40;;;19.90;99.90;;;;;;5066038;28;20529;-79
2022/05/21 07:15:11;;;;;;;11.83;6.73;;;21.30;99.90;;;;;;5065862;28;20456;-80
2022/05/21 07:17:39;;;;;;;10.43;5.53;;;21.50;99.90;;;;;;5072905;28;20569;-82
2022/05/21 07:20:10;;;;;;;10.63;5.90;;;21.20;99.90;;;;;;5067831;28;20483;-82
2022/05/21 07:22:40;;;;;;;11.50;5.60;;;20.50;99.90;;;;;;5072291;28;20546;-81
2022/05/21 07:25:08;;;;;;;6.23;4.60;;;20.20;99.90;;;;;;5077601;28;20459;-81
2022/05/21 07:27:34;;;;;;;9.23;5.03;;;20.60;99.90;;;;;;5070394;28;20452;-81
2022/05/21 07:30:01;;;;;;;6.30;4.67;;;20.70;99.90;;;;;;5080417;28;20460;-80
2022/05/21 07:32:28;;;;;;;6.97;3.60;;;20.50;99.90;;;;;;5078710;28;20488;-79
2022/05/21 07:35:01;;;;;;;7.60;3.43;;;20.80;99.90;;;;;;5067498;28;20445;-81
2022/05/21 07:37:28;;;;;;;7.50;3.17;;;20.50;99.90;;;;;;5063419;28;21017;-80
2022/05/21 07:39:55;;;;;;;11.33;4.07;;;21.30;99.90;;;;;;5073954;28;20441;-81
2022/05/21 07:42:23;;;;;;;8.20;2.60;;;22.20;99.00;;;;;;5079181;28;20484;-80
2022/05/21 07:44:49;;;;;;;7.90;2.90;;;23.30;96.00;;;;;;5073303;28;20456;-82
2022/05/21 07:47:16;;;;;;;9.77;2.57;;;23.10;94.30;;;;;;5067631;28;20504;-81
2022/05/21 07:49:44;;;;;;;7.80;3.10;;;22.50;94.30;;;;;;5067956;28;20448;-81
2022/05/21 07:52:12;;;;;;;4.77;2.60;;;21.50;95.80;;;;;;5065786;28;20448;-81
2022/05/21 07:54:39;;;;;;;9.73;4.10;;;20.90;98.60;;;;;;5064640;28;20503;-82
2022/05/21 07:57:06;;;;;;;7.17;3.23;;;20.40;99.90;;;;;;5072605;28;20459;-80
2022/05/21 07:59:33;;;;;;;7.90;3.20;;;21.20;99.40;;;;;;5064700;28;20453;-81
2022/05/21 08:02:00;;;;;;;8.37;3.20;;;21.60;97.00;;;;;;5065169;28;20465;-81
2022/05/21 08:04:27;;;;;;;6.83;2.67;;;21.10;97.60;;;;;;5073279;28;20469;-81
2022/05/21 08:06:54;;;;;;;14.70;3.83;;;20.30;99.30;;;;;;5066063;28;20492;-80
2022/05/21 08:09:22;;;;;;;6.13;2.90;;;19.50;99.90;;;;;;5066108;28;20522;-82
2022/05/21 08:11:49;;;;;;;5.90;2.40;;;19.60;99.90;;;;;;5081424;28;20497;-81
2022/05/21 08:14:18;;;;;;;5.93;2.80;;;20.70;99.90;;;;;;5083821;28;20474;-80
2022/05/21 08:16:47;;;;;;;14.50;2.63;;;21.00;98.40;;;;;;5085672;28;20467;-81
2022/05/21 08:19:14;;;;;;;7.87;2.23;;;21.80;96.80;;;;;;5067122;28;20922;-80
2022/05/21 08:21:40;;;;;;;13.27;3.40;;;21.40;95.80;;;;;;5065420;28;20457;-81
2022/05/21 08:26:57;;;;;;;4.27;2.13;;;21.60;95.80;;;;;;5063999;28;20519;-80
2022/05/21 08:29:25;;;;;;;6.83;2.60;;;22.70;93.30;;;;;;5055710;28;20442;-79
2022/05/21 08:31:52;;;;;;;6.37;2.00;;;23.50;90.80;;;;;;5064008;28;20861;-81
2022/05/21 08:34:19;;;;;;;6.07;2.03;;;23.70;90.70;;;;;;5070741;28;20506;-79
2022/05/21 08:36:47;;;;;;;3.77;1.87;;;23.80;88.40;;;;;;5071251;28;20442;-82
2022/05/21 08:39:14;;;;;;;7.60;1.83;;;24.00;89.90;;;;;;5063113;28;20462;-81
2022/05/21 08:41:46;;;;;;;7.00;1.70;;;24.90;88.20;;;;;;5064181;28;20450;-80
2022/05/21 08:44:24;;;;;;;4.37;2.10;;;25.80;85.30;;;;;;5065593;28;20470;-82
2022/05/21 08:47:04;;;;;;;8.77;2.30;;;26.40;82.10;;;;;;5075313;28;20444;-81
2022/05/21 08:49:36;;;;;;;7.30;2.13;;;27.10;81.40;;;;;;5058409;28;20461;-81
2022/05/21 08:52:14;;;;;;;20.63;2.03;;;27.30;78.90;;;;;;5064799;28;20489;-80
2022/05/21 08:54:44;;;;;;;7.47;2.23;;;27.20;76.80;;;;;;5073455;28;20430;-81
2022/05/21 08:57:16;;;;;;;6.60;2.97;;;26.30;78.60;;;;;;5088090;28;20453;-81
2022/05/21 08:59:49;;;;;;;7.67;2.60;;;25.40;81.20;;;;;;5098277;28;20460;-81
2022/05/21 09:02:18;;;;;;;3.00;2.10;;;25.00;83.10;;;;;;5094590;28;20533;-81
2022/05/21 09:04:45;;;;;;;4.73;2.10;;;24.50;84.60;;;;;;5079369;28;20472;-81
2022/05/21 09:07:20;;;;;;;4.93;1.80;;;24.40;84.10;;;;;;5078956;28;20465;-80
2022/05/21 09:10:03;;;;;;;6.93;1.87;;;24.50;84.00;;;;;;5079066;28;20463;-82
2022/05/21 09:12:41;;;;;;;7.13;1.77;;;25.00;82.90;;;;;;5079321;28;20430;-81
2022/05/21 09:18:23;;;;;;;5.10;1.90;;;24.90;83.40;;;;;;5079292;28;20472;-80
2022/05/21 09:20:57;;;;;;;4.13;2.20;;;24.40;82.10;;;;;;5079169;28;20448;-82
2022/05/21 09:23:24;;;;;;;8.70;1.93;;;23.80;84.50;;;;;;5079288;28;20529;-82
2022/05/21 09:26:06;;;;;;;8.73;3.07;;;23.80;86.70;;;;;;5079165;28;20419;-81
2022/05/21 09:28:37;;;;;;;3.13;1.70;;;23.60;85.30;;;;;;5062447;28;20453;-79
2022/05/21 09:31:07;;;;;;;6.90;2.23;;;23.60;86.10;;;;;;5066340;28;20462;-80
2022/05/21 09:33:37;;;;;;;6.60;2.30;;;23.20;87.20;;;;;;5071990;28;20434;-79
2022/05/21 09:36:05;;;;;;;8.40;2.90;;;22.90;87.90;;;;;;5065034;28;20470;-82
2022/05/21 09:38:36;;;;;;;5.00;1.80;;;22.80;88.80;;;;;;5065159;28;20529;-80
2022/05/21 09:41:12;;;;;;;8.07;2.63;;;23.10;88.80;;;;;;5063380;28;20522;-81
2022/05/21 09:46:34;;;;;;;5.23;2.07;;;22.90;90.00;;;;;;5066541;28;20422;-82
2022/05/21 09:49:17;;;;;;;6.93;2.83;;;22.10;89.90;;;;;;5066858;28;20519;-80
2022/05/21 09:51:54;;;;;;;8.50;2.63;;;21.10;91.70;;;;;;5064306;28;20943;-81
2022/05/21 09:54:23;;;;;;;7.83;2.37;;;20.70;93.50;;;;;;5076583;28;20431;-81
2022/05/21 09:56:52;;;;;;;5.13;2.47;;;20.50;96.20;;;;;;5077819;28;20505;-81
2022/05/21 09:59:21;;;;;;;7.70;3.30;;;20.20;98.90;;;;;;5084553;28;20441;-83
2022/05/21 10:01:53;;;;;;;5.30;1.93;;;21.10;96.10;;;;;;5082611;28;20508;-81
2022/05/21 10:04:27;;;;;;;7.83;2.20;;;21.30;94.40;;;;;;5070837;28;20490;-81
2022/05/21 10:06:58;;;;;;;7.70;2.60;;;21.00;94.60;;;;;;5070165;28;20469;-81
2022/05/21 10:12:20;;;;;;;7.30;2.23;;;20.50;94.60;;;;;;5066629;28;20462;-82
2022/05/21 10:14:55;;;;;;;8.10;2.07;;;20.70;95.30;;;;;;5076352;28;20484;-81
2022/05/21 10:17:33;;;;;;;5.90;2.87;;;21.90;93.90;;;;;;5072162;28;20488;-83
2022/05/21 10:20:12;;;;;;;7.63;1.93;;;23.10;91.30;;;;;;5069863;28;20437;-82
2022/05/21 10:22:47;;;;;;;3.27;1.67;;;23.60;89.10;;;;;;5068569;28;20437;-82
2022/05/21 10:25:16;;;;;;;3.83;1.63;;;24.20;86.30;;;;;;5074579;28;20500;-82
2022/05/21 10:28:17;;;;;;;10.00;2.00;;;23.50;85.70;;;;;;5069301;28;20466;-81
2022/05/21 10:31:04;;;;;;;10.10;2.20;;;22.50;87.70;;;;;;5062299;28;20479;-82
2022/05/21 10:33:42;;;;;;;4.97;1.80;;;21.90;90.30;;;;;;5059142;28;20456;-82
2022/05/21 10:36:18;;;;;;;8.37;3.63;;;21.30;91.90;;;;;;5073584;28;20473;-82
2022/05/21 10:39:21;;;;;;;12.53;2.30;;;21.00;92.10;;;;;;5068799;28;20472;-82
2022/05/21 10:42:09;;;;;;;5.83;1.70;;;20.90;92.10;;;;;;5029880;28;20441;-80
2022/05/21 10:44:48;;;;;;;3.77;2.00;;;20.80;91.80;;;;;;5057217;28;20472;-80
2022/05/21 10:47:24;;;;;;;2.80;1.47;;;20.70;92.10;;;;;;5078374;28;20498;-83
2022/05/21 10:50:30;;;;;;;2.33;1.53;;;21.00;91.70;;;;;;5065125;28;20547;-82
2022/05/21 10:53:30;;;;;;;4.10;1.53;;;21.30;91.00;;;;;;5068627;28;20508;-83
2022/05/21 10:56:07;;;;;;;3.70;1.70;;;21.50;90.90;;;;;;5069275;28;20460;-80
2022/05/21 10:58:47;;;;;;;4.53;1.37;;;21.10;90.50;;;;;;5065292;28;20456;-81
2022/05/21 11:01:16;;;;;;;8.20;2.23;;;20.90;91.10;;;;;;5072413;28;20484;-81
2022/05/21 11:04:13;;;;;;;5.60;2.50;;;20.70;91.40;;;;;;5063388;28;20476;-80
2022/05/21 11:07:16;;;;;;;3.73;1.93;;;20.50;92.00;;;;;;5063748;28;20476;-82
2022/05/21 11:09:53;;;;;;;5.60;2.30;;;20.50;92.40;;;;;;5047584;28;20493;-79
2022/05/21 11:12:23;;;;;;;3.43;1.80;;;20.60;92.60;;;;;;5063972;28;20472;-80
2022/05/21 11:14:54;;;;;;;10.03;3.10;;;20.30;93.10;;;;;;5062850;28;20472;-82
2022/05/21 11:17:31;;;;;;;4.17;1.63;;;20.20;94.00;;;;;;5069302;28;20598;-81
2022/05/21 11:20:02;;;;;;;11.03;2.80;;;20.40;94.20;;;;;;5059491;28;20434;-81
2022/05/21 11:22:36;;;;;;;6.80;2.30;;;20.80;93.60;;;;;;5064391;28;20448;-82
2022/05/21 11:25:12;;;;;;;3.10;1.53;;;21.00;92.20;;;;;;5070078;28;20547;-81
2022/05/21 11:27:46;;;;;;;6.37;1.83;;;20.80;92.00;;;;;;5063599;28;20469;-82
2022/05/21 11:30:17;;;;;;;6.80;2.00;;;20.60;92.00;;;;;;5063277;28;20456;-82
2022/05/21 11:38:24;;;;;;;3.50;1.50;;;20.70;91.90;;;;;;5072952;28;20500;-79
2022/05/21 11:44:55;;;;;;;7.20;2.57;;;20.80;91.70;;;;;;5061266;28;20504;-82
2022/05/21 11:46:47;;;;;;;6.10;2.13;;;20.70;92.60;;;;;;5066635;28;20545;-79
2022/05/21 11:49:34;;;;;;;4.97;1.80;;;21.00;92.10;;;;;;5061870;28;20449;-81
2022/05/21 11:52:39;;;;;;;5.63;2.07;;;21.10;91.70;;;;;;5067478;28;20503;-80
2022/05/21 11:55:19;;;;;;;7.07;1.90;;;21.70;90.70;;;;;;5060991;28;20437;-81
2022/05/21 11:57:49;;;;;;;6.90;1.97;;;22.10;89.70;;;;;;5065378;28;20866;-83
2022/05/21 12:00:42;;;;;;;7.00;2.10;;;22.40;88.80;;;;;;5062931;28;20445;-82
2022/05/21 12:03:15;;;;;;;7.77;2.20;;;22.50;88.20;;;;;;5064589;28;20457;-80
2022/05/21 12:05:56;;;;;;;6.43;1.80;;;22.40;87.40;;;;;;5066628;28;20460;-81
2022/05/21 12:08:43;;;;;;;4.73;1.57;;;22.50;86.50;;;;;;5073676;28;20460;-82
2022/05/21 12:11:13;;;;;;;4.90;1.40;;;22.30;87.10;;;;;;5075574;28;20449;-80
2022/05/21 12:13:52;;;;;;;8.10;2.30;;;22.20;87.50;;;;;;5072918;28;20433;-81
2022/05/21 12:16:43;;;;;;;5.80;1.30;;;22.20;88.40;;;;;;5069130;28;20544;-82
2022/05/21 12:19:30;;;;;;;3.53;1.77;;;22.50;87.30;;;;;;5076829;28;20870;-82
2022/05/21 12:22:03;;;;;;;5.73;1.67;;;22.60;86.60;;;;;;5091180;28;20457;-83
2022/05/21 12:24:42;;;;;;;8.17;1.60;;;22.40;86.60;;;;;;5084338;28;20488;-82
2022/05/21 12:27:21;;;;;;;4.23;1.57;;;22.40;87.40;;;;;;5084100;28;20465;-82
2022/05/21 12:29:52;;;;;;;3.70;1.80;;;22.30;87.00;;;;;;5071012;28;20505;-81
2022/05/21 12:32:24;;;;;;;6.93;1.87;;;22.00;85.80;;;;;;5055869;28;20434;-80
2022/05/21 12:35:26;;;;;;;9.03;1.73;;;21.80;86.90;;;;;;5055772;28;20923;-80
2022/05/21 12:37:58;;;;;;;4.37;1.40;;;21.60;87.30;;;;;;5051051;28;20497;-83
2022/05/21 12:40:35;;;;;;;5.67;1.47;;;21.50;88.30;;;;;;5067645;28;20440;-79
2022/05/21 12:43:08;;;;;;;3.93;1.40;;;21.60;88.50;;;;;;5067699;28;20521;-83
2022/05/21 12:45:42;;;;;;;7.63;2.20;;;21.60;87.60;;;;;;5066267;28;20491;-81
2022/05/21 12:48:12;;;;;;;4.43;1.37;;;21.70;87.10;;;;;;5067210;28;20473;-82
2022/05/21 12:50:48;;;;;;;8.03;2.07;;;21.80;87.20;;;;;;5075151;28;20510;-80
2022/05/21 12:53:20;;;;;;;4.20;1.00;;;21.90;87.40;;;;;;5073968;28;20522;-80
2022/05/21 12:55:57;;;;;;;3.03;1.40;;;22.00;87.20;;;;;;5073729;28;20491;-82
2022/05/21 12:58:24;;;;;;;7.13;2.80;;;22.20;86.30;;;;;;5064388;28;20569;-81
2022/05/21 13:00:54;;;;;;;3.23;1.50;;;22.00;85.70;;;;;;5066232;28;20536;-81
2022/05/21 13:03:23;;;;;;;10.60;1.97;;;22.00;86.10;;;;;;5082975;28;20467;-80
2022/05/21 13:05:53;;;;;;;5.13;1.93;;;21.80;86.10;;;;;;5094209;28;20519;-82
2022/05/21 13:08:22;;;;;;;4.63;1.50;;;21.70;87.10;;;;;;5082809;28;20532;-82
2022/05/21 13:11:02;;;;;;;4.23;1.20;;;21.40;86.80;;;;;;5065917;28;20950;-82
2022/05/21 13:13:34;;;;;;;4.00;1.57;;;21.40;88.30;;;;;;5079108;28;20475;-81
2022/05/21 13:16:04;;;;;;;4.00;1.20;;;21.40;89.40;;;;;;5071655;28;20503;-82
2022/05/21 13:18:44;;;;;;;3.83;1.43;;;21.40;87.90;;;;;;5073466;28;20513;-83
2022/05/21 13:21:24;;;;;;;6.43;2.30;;;21.40;87.80;;;;;;5071502;28;20481;-80
2022/05/21 13:24:08;;;;;;;5.53;1.50;;;21.30;88.30;;;;;;5079218;28;20472;-82
2022/05/21 13:26:37;;;;;;;4.97;1.63;;;21.10;88.50;;;;;;5073895;28;20447;-81
2022/05/21 13:29:16;;;;;;;7.20;1.70;;;21.10;89.60;;;;;;5077769;28;20458;-79